Time;durP1;ratioP1;P1;durP2;ratioP2;P2;SDS_P1;SDS_P2;PMS_P1;PMS_P2;Temp;Humidity;BMP_temperature;BMP_pressure;BME280_temperature;BME280_humidity;BME280_pressure;Samples;Min_cycle;Max_cycle;Signal;HPM_P1;HPM_P2
2023/05/22 00:01:59;;;;;;;16.52;10.23;;;;;;;;;;7373477;19;20006;-69
2023/05/22 00:04:28;;;;;;;15.70;10.52;;;;;;;;;;7373263;19;20013;-69
2023/05/22 00:06:54;;;;;;;15.38;10.90;;;;;;;;;;7394263;19;20003;-70
2023/05/22 00:09:20;;;;;;;13.63;10.02;;;;;;;;;;7372205;19;20018;-70
2023/05/22 00:11:46;;;;;;;15.27;9.82;;;;;;;;;;7373179;19;20031;-70
2023/05/22 00:14:12;;;;;;;14.30;10.15;;;;;;;;;;7365747;19;20011;-69
2023/05/22 00:16:38;;;;;;;15.40;10.93;;;;;;;;;;7373258;19;20110;-69
2023/05/22 00:19:03;;;;;;;13.57;9.68;;;;;;;;;;7393333;19;20011;-70
2023/05/22 00:21:33;;;;;;;16.50;10.50;;;;;;;;;;7372188;19;20014;-70
2023/05/22 00:24:02;;;;;;;16.83;10.73;;;;;;;;;;7373070;19;20007;-70
2023/05/22 00:26:28;;;;;;;13.73;9.75;;;;;;;;;;7372616;19;20010;-70
2023/05/22 00:28:53;;;;;;;15.10;10.90;;;;;;;;;;7371771;19;20026;-70
2023/05/22 00:31:19;;;;;;;15.35;11.00;;;;;;;;;;7372357;19;20341;-69
2023/05/22 00:33:44;;;;;;;19.65;11.23;;;;;;;;;;7393057;19;20031;-70
2023/05/22 00:36:09;;;;;;;17.10;10.95;;;;;;;;;;7371907;19;20007;-70
2023/05/22 00:38:36;;;;;;;17.67;11.40;;;;;;;;;;7369614;19;20018;-70
2023/05/22 00:41:03;;;;;;;14.95;10.73;;;;;;;;;;7372173;19;20069;-70
2023/05/22 00:43:29;;;;;;;16.17;11.18;;;;;;;;;;7372507;19;20086;-69
2023/05/22 00:45:54;;;;;;;14.48;10.13;;;;;;;;;;7394008;19;20015;-70
2023/05/22 00:48:20;;;;;;;16.15;10.90;;;;;;;;;;7370412;19;20006;-70
2023/05/22 00:50:46;;;;;;;16.05;11.35;;;;;;;;;;7371752;19;20010;-70
2023/05/22 00:53:13;;;;;;;16.55;10.80;;;;;;;;;;7373292;19;20025;-69
2023/05/22 00:55:39;;;;;;;16.23;11.60;;;;;;;;;;7372576;19;20416;-70
2023/05/22 00:58:06;;;;;;;15.02;10.45;;;;;;;;;;7391381;19;20078;-70
2023/05/22 01:00:35;;;;;;;17.48;10.68;;;;;;;;;;7371702;19;20006;-70
2023/05/22 01:03:01;;;;;;;16.65;10.73;;;;;;;;;;7371885;19;20038;-70
2023/05/22 01:05:27;;;;;;;16.20;11.15;;;;;;;;;;7371848;19;20400;-70
2023/05/22 01:07:52;;;;;;;17.92;10.52;;;;;;;;;;7369283;19;20006;-70
2023/05/22 01:10:18;;;;;;;16.77;11.10;;;;;;;;;;7371940;19;20019;-69
2023/05/22 01:12:47;;;;;;;19.42;11.75;;;;;;;;;;7393225;19;20006;-70
2023/05/22 01:15:24;;;;;;;18.70;11.23;;;;;;;;;;7375150;19;20011;-70
2023/05/22 01:18:09;;;;;;;18.13;11.60;;;;;;;;;;7381746;19;20010;-70
2023/05/22 01:20:47;;;;;;;15.43;11.10;;;;;;;;;;7375263;19;20010;-69
2023/05/22 01:23:31;;;;;;;20.38;12.40;;;;;;;;;;7371540;19;20014;-69
2023/05/22 01:26:19;;;;;;;15.50;11.77;;;;;;;;;;7371675;19;20017;-69
2023/05/22 01:29:06;;;;;;;17.23;11.77;;;;;;;;;;7369529;19;20007;-70
2023/05/22 01:31:37;;;;;;;16.20;11.15;;;;;;;;;;7371350;19;20018;-70
2023/05/22 01:34:04;;;;;;;17.10;11.23;;;;;;;;;;7391455;19;20010;-70
2023/05/22 01:36:33;;;;;;;17.75;11.38;;;;;;;;;;7371192;19;20002;-70
2023/05/22 01:39:00;;;;;;;15.98;11.57;;;;;;;;;;7372714;19;20014;-69
2023/05/22 01:41:27;;;;;;;21.23;11.80;;;;;;;;;;7376787;19;20053;-69
2023/05/22 01:43:52;;;;;;;18.63;12.32;;;;;;;;;;7380591;19;20058;-70
2023/05/22 01:46:18;;;;;;;16.77;11.23;;;;;;;;;;7372244;19;20002;-70
2023/05/22 01:48:43;;;;;;;18.08;11.88;;;;;;;;;;7390419;19;20002;-70
2023/05/22 01:51:24;;;;;;;15.85;10.95;;;;;;;;;;7370141;19;20002;-70
2023/05/22 01:54:13;;;;;;;;;;;;;;;;;;7371241;19;20751;-70
2023/05/22 01:56:47;;;;;;;16.85;11.50;;;;;;;;;;7371207;19;19975;-70
2023/05/22 01:59:24;;;;;;;17.05;11.85;;;;;;;;;;7368497;19;20015;-70
2023/05/22 02:01:51;;;;;;;18.08;12.25;;;;;;;;;;7370902;19;20042;-70
2023/05/22 02:04:20;;;;;;;17.05;12.45;;;;;;;;;;7370855;19;20006;-70
2023/05/22 02:06:46;;;;;;;18.80;11.35;;;;;;;;;;7392348;19;20074;-70
2023/05/22 02:09:15;;;;;;;17.55;12.60;;;;;;;;;;7369454;19;20227;-70
2023/05/22 02:11:41;;;;;;;17.92;12.05;;;;;;;;;;7371064;19;20006;-70
2023/05/22 02:14:10;;;;;;;17.77;12.45;;;;;;;;;;7369659;19;20022;-70
2023/05/22 02:16:36;;;;;;;16.35;11.73;;;;;;;;;;7370761;19;20014;-70
2023/05/22 02:19:05;;;;;;;18.88;12.82;;;;;;;;;;7390454;19;20115;-70
2023/05/22 02:21:34;;;;;;;15.60;11.27;;;;;;;;;;7368143;19;19998;-70
2023/05/22 02:24:01;;;;;;;18.50;11.35;;;;;;;;;;7368271;19;20082;-70
2023/05/22 02:26:26;;;;;;;21.40;12.05;;;;;;;;;;7368090;19;20023;-70
2023/05/22 02:28:52;;;;;;;21.20;11.75;;;;;;;;;;7367425;19;20007;-70
2023/05/22 02:31:17;;;;;;;18.30;12.13;;;;;;;;;;7367706;19;20035;-70
2023/05/22 02:33:43;;;;;;;16.23;11.52;;;;;;;;;;7389546;19;20007;-70
2023/05/22 02:36:09;;;;;;;19.40;11.68;;;;;;;;;;7368861;19;20021;-70
2023/05/22 02:38:35;;;;;;;16.02;10.93;;;;;;;;;;7372886;19;20014;-70
2023/05/22 02:41:01;;;;;;;20.25;11.35;;;;;;;;;;7380911;19;20011;-70
2023/05/22 02:43:26;;;;;;;19.10;11.73;;;;;;;;;;7381341;19;20007;-70
2023/05/22 02:45:52;;;;;;;18.20;12.23;;;;;;;;;;7398132;19;20007;-70
2023/05/22 02:48:17;;;;;;;18.20;11.30;;;;;;;;;;7370203;19;20006;-70
2023/05/22 02:50:43;;;;;;;19.90;11.80;;;;;;;;;;7369919;19;20082;-70
2023/05/22 02:53:08;;;;;;;19.33;12.02;;;;;;;;;;7369417;19;20010;-70
2023/05/22 02:55:34;;;;;;;17.20;11.85;;;;;;;;;;7368938;19;20006;-70
2023/05/22 02:57:59;;;;;;;18.15;12.15;;;;;;;;;;7387308;19;20014;-70
2023/05/22 03:00:24;;;;;;;16.48;12.60;;;;;;;;;;7368328;19;20790;-70
2023/05/22 03:02:50;;;;;;;22.02;12.55;;;;;;;;;;7368514;19;20017;-70
2023/05/22 03:05:16;;;;;;;19.27;12.73;;;;;;;;;;7367976;19;20010;-70
2023/05/22 03:07:42;;;;;;;16.85;11.55;;;;;;;;;;7366370;19;20591;-70
2023/05/22 03:10:07;;;;;;;17.85;12.05;;;;;;;;;;7390524;19;20006;-70
2023/05/22 03:12:32;;;;;;;16.17;12.45;;;;;;;;;;7367862;19;20013;-70
2023/05/22 03:14:58;;;;;;;18.42;12.57;;;;;;;;;;7368518;19;20015;-70
2023/05/22 03:17:23;;;;;;;17.40;12.18;;;;;;;;;;7367160;19;20018;-70
2023/05/22 03:19:48;;;;;;;17.38;12.27;;;;;;;;;;7367894;19;20010;-70
2023/05/22 03:22:14;;;;;;;19.42;13.05;;;;;;;;;;7367644;19;20070;-70
2023/05/22 03:24:39;;;;;;;19.55;12.98;;;;;;;;;;7389623;19;20002;-70
2023/05/22 03:27:04;;;;;;;18.17;12.88;;;;;;;;;;7365437;19;20214;-71
2023/05/22 03:29:30;;;;;;;19.67;13.10;;;;;;;;;;7367202;19;20072;-70
2023/05/22 03:31:55;;;;;;;19.65;12.10;;;;;;;;;;7368119;19;20543;-70
2023/05/22 03:34:21;;;;;;;18.10;12.40;;;;;;;;;;7366974;19;20315;-70
2023/05/22 03:36:47;;;;;;;21.80;12.90;;;;;;;;;;7395119;19;20006;-70
2023/05/22 03:39:12;;;;;;;23.15;12.52;;;;;;;;;;7372825;19;20007;-70
2023/05/22 03:41:37;;;;;;;17.80;12.77;;;;;;;;;;7374607;19;20573;-70
2023/05/22 03:44:03;;;;;;;20.08;11.98;;;;;;;;;;7373366;19;20095;-70
2023/05/22 03:46:28;;;;;;;16.52;12.52;;;;;;;;;;7374750;19;20004;-70
2023/05/22 03:48:53;;;;;;;21.10;12.80;;;;;;;;;;7395849;19;20630;-70
2023/05/22 03:51:19;;;;;;;18.38;12.90;;;;;;;;;;7373675;19;20011;-70
2023/05/22 03:53:44;;;;;;;19.17;12.60;;;;;;;;;;7374204;19;20002;-70
2023/05/22 03:56:09;;;;;;;16.90;12.13;;;;;;;;;;7374125;19;20003;-70
2023/05/22 03:58:35;;;;;;;18.58;12.57;;;;;;;;;;7374297;19;20006;-70
2023/05/22 04:01:00;;;;;;;17.23;11.77;;;;;;;;;;7394780;19;20092;-70
2023/05/22 04:03:26;;;;;;;18.73;12.93;;;;;;;;;;7387805;19;20016;-71
2023/05/22 04:05:52;;;;;;;20.65;12.88;;;;;;;;;;7396459;19;20030;-70
2023/05/22 04:08:17;;;;;;;20.95;12.38;;;;;;;;;;7389972;19;20042;-70
2023/05/22 04:10:45;;;;;;;17.48;11.95;;;;;;;;;;7376303;19;20062;-70
2023/05/22 04:13:11;;;;;;;19.58;12.38;;;;;;;;;;7383134;19;20082;-69
2023/05/22 04:15:36;;;;;;;18.30;12.10;;;;;;;;;;7400771;19;20014;-70
2023/05/22 04:18:02;;;;;;;19.77;12.73;;;;;;;;;;7370716;19;20007;-70
2023/05/22 04:20:27;;;;;;;21.15;13.00;;;;;;;;;;7371778;19;20114;-71
2023/05/22 04:22:56;;;;;;;17.95;12.07;;;;;;;;;;7370884;19;20056;-60
2023/05/22 04:25:21;;;;;;;19.33;12.57;;;;;;;;;;7371295;19;20007;-59
2023/05/22 04:27:47;;;;;;;18.98;12.90;;;;;;;;;;7390755;19;20013;-57
2023/05/22 04:30:15;;;;;;;17.80;12.13;;;;;;;;;;7380845;19;20072;-61
2023/05/22 04:32:42;;;;;;;20.35;12.85;;;;;;;;;;7381914;19;20071;-58
2023/05/22 04:35:09;;;;;;;17.65;12.52;;;;;;;;;;7375956;19;20026;-55
2023/05/22 04:37:39;;;;;;;18.10;12.95;;;;;;;;;;7371406;19;20023;-55
2023/05/22 04:40:10;;;;;;;17.88;11.43;;;;;;;;;;7394842;19;20680;-58
2023/05/22 04:42:37;;;;;;;19.63;13.00;;;;;;;;;;7373437;19;20406;-54
2023/05/22 04:45:03;;;;;;;18.35;11.98;;;;;;;;;;7371191;19;20021;-54
2023/05/22 04:47:30;;;;;;;16.85;12.00;;;;;;;;;;7370137;19;20010;-54
2023/05/22 04:49:56;;;;;;;19.42;13.50;;;;;;;;;;7372755;19;20022;-55
2023/05/22 04:52:21;;;;;;;18.98;12.63;;;;;;;;;;7372142;19;20018;-55
2023/05/22 04:54:46;;;;;;;20.25;12.32;;;;;;;;;;7393979;19;19999;-65
2023/05/22 04:57:12;;;;;;;22.55;12.65;;;;;;;;;;7365528;19;20563;-63
2023/05/22 04:59:37;;;;;;;25.40;13.10;;;;;;;;;;7362046;19;20428;-62
2023/05/22 05:02:04;;;;;;;27.10;13.70;;;;;;;;;;7371366;19;20007;-60
2023/05/22 05:04:29;;;;;;;38.22;13.35;;;;;;;;;;7370227;19;20470;-62
2023/05/22 05:06:56;;;;;;;26.95;12.68;;;;;;;;;;7391902;19;20002;-58
2023/05/22 05:09:22;;;;;;;26.50;12.70;;;;;;;;;;7370207;19;20473;-59
2023/05/22 05:11:48;;;;;;;30.60;12.90;;;;;;;;;;7370564;19;20043;-55
2023/05/22 05:14:13;;;;;;;37.35;14.32;;;;;;;;;;7369342;19;20091;-57
2023/05/22 05:16:39;;;;;;;30.63;13.73;;;;;;;;;;7370877;19;20018;-57
2023/05/22 05:19:04;;;;;;;28.00;12.93;;;;;;;;;;7390189;19;20123;-58
2023/05/22 05:21:30;;;;;;;29.25;12.88;;;;;;;;;;7368084;19;20002;-67
2023/05/22 05:23:55;;;;;;;25.70;12.18;;;;;;;;;;7361860;19;20451;-68
2023/05/22 05:26:22;;;;;;;31.20;13.88;;;;;;;;;;7364784;19;20370;-67
2023/05/22 05:28:48;;;;;;;28.17;12.65;;;;;;;;;;7365774;19;20006;-67
2023/05/22 05:31:13;;;;;;;23.58;12.23;;;;;;;;;;7366425;19;20003;-68
2023/05/22 05:33:39;;;;;;;24.60;11.93;;;;;;;;;;7387789;19;20003;-68
2023/05/22 05:36:04;;;;;;;26.53;12.33;;;;;;;;;;7367961;19;20047;-67
2023/05/22 05:38:30;;;;;;;23.60;11.75;;;;;;;;;;7369340;19;20301;-67
2023/05/22 05:40:55;;;;;;;23.75;11.88;;;;;;;;;;7378575;19;20080;-68
2023/05/22 05:43:22;;;;;;;21.98;11.65;;;;;;;;;;7378393;19;20010;-68
2023/05/22 05:45:47;;;;;;;28.13;12.05;;;;;;;;;;7393088;19;20002;-67
2023/05/22 05:48:12;;;;;;;20.90;11.80;;;;;;;;;;7369594;19;20081;-68
2023/05/22 05:50:38;;;;;;;20.75;11.80;;;;;;;;;;7371647;19;20053;-69
2023/05/22 05:53:03;;;;;;;25.67;11.05;;;;;;;;;;7369720;19;20082;-69
2023/05/22 05:55:29;;;;;;;17.42;10.90;;;;;;;;;;7371771;19;20015;-68
2023/05/22 05:57:55;;;;;;;26.58;11.50;;;;;;;;;;7385897;19;20851;-68
2023/05/22 06:00:21;;;;;;;25.58;12.18;;;;;;;;;;7369106;19;20081;-68
2023/05/22 06:02:47;;;;;;;21.08;12.50;;;;;;;;;;7369280;19;20102;-68
2023/05/22 06:05:14;;;;;;;18.55;11.50;;;;;;;;;;7369246;19;20059;-70
2023/05/22 06:07:39;;;;;;;17.38;12.23;;;;;;;;;;7367003;19;20010;-69
2023/05/22 06:10:05;;;;;;;22.20;12.30;;;;;;;;;;7391087;19;20350;-68
2023/05/22 06:12:31;;;;;;;20.48;12.45;;;;;;;;;;7369113;19;20041;-68
2023/05/22 06:14:56;;;;;;;16.38;11.38;;;;;;;;;;7366969;19;20015;-68
2023/05/22 06:17:22;;;;;;;20.42;11.80;;;;;;;;;;7367980;19;20017;-68
2023/05/22 06:19:47;;;;;;;22.00;11.27;;;;;;;;;;7370577;19;20006;-69
2023/05/22 06:22:12;;;;;;;21.35;11.00;;;;;;;;;;7368683;19;20046;-68
2023/05/22 06:24:38;;;;;;;19.88;11.73;;;;;;;;;;7390244;19;20058;-68
2023/05/22 06:27:04;;;;;;;18.17;11.65;;;;;;;;;;7342945;19;20031;-68
2023/05/22 06:29:29;;;;;;;20.40;12.55;;;;;;;;;;7365814;19;20007;-68
2023/05/22 06:31:55;;;;;;;17.55;11.63;;;;;;;;;;7368302;19;20010;-68
2023/05/22 06:34:21;;;;;;;29.42;11.88;;;;;;;;;;7367206;19;20007;-68
2023/05/22 06:36:53;;;;;;;18.33;11.65;;;;;;;;;;7389694;19;20418;-68
2023/05/22 06:39:18;;;;;;;19.25;11.25;;;;;;;;;;7368981;19;20008;-68
2023/05/22 06:41:44;;;;;;;15.98;10.90;;;;;;;;;;7368030;19;20394;-68
2023/05/22 06:44:11;;;;;;;16.98;10.43;;;;;;;;;;7367828;19;20094;-68
2023/05/22 06:46:36;;;;;;;18.02;10.68;;;;;;;;;;7367430;19;20010;-69
2023/05/22 06:49:01;;;;;;;25.05;11.60;;;;;;;;;;7390163;19;20066;-69
2023/05/22 06:51:28;;;;;;;19.17;10.73;;;;;;;;;;7368817;19;20010;-68
2023/05/22 06:53:53;;;;;;;20.73;11.70;;;;;;;;;;7368053;19;20039;-67
2023/05/22 06:56:18;;;;;;;16.17;10.35;;;;;;;;;;7366958;19;20011;-68
2023/05/22 06:58:44;;;;;;;14.93;9.90;;;;;;;;;;7366611;19;20006;-68
2023/05/22 07:01:09;;;;;;;17.53;10.10;;;;;;;;;;7384468;19;20006;-67
2023/05/22 07:03:34;;;;;;;17.17;11.00;;;;;;;;;;7378152;19;20335;-67
2023/05/22 07:06:01;;;;;;;15.93;9.70;;;;;;;;;;7367453;19;20089;-68
2023/05/22 07:08:26;;;;;;;14.98;9.80;;;;;;;;;;7367198;19;20054;-68
2023/05/22 07:10:51;;;;;;;17.23;10.27;;;;;;;;;;7383305;19;20011;-68
2023/05/22 07:13:17;;;;;;;15.65;9.63;;;;;;;;;;7385673;19;20003;-68
2023/05/22 07:15:42;;;;;;;16.20;9.30;;;;;;;;;;7399224;19;19998;-67
2023/05/22 07:18:08;;;;;;;14.02;8.93;;;;;;;;;;7373230;19;20059;-67
2023/05/22 07:20:35;;;;;;;13.05;9.07;;;;;;;;;;7375498;19;20583;-69
2023/05/22 07:23:01;;;;;;;14.80;9.82;;;;;;;;;;7374371;19;20114;-68
2023/05/22 07:25:27;;;;;;;13.85;9.18;;;;;;;;;;7374695;19;20081;-69
2023/05/22 07:27:52;;;;;;;12.98;8.70;;;;;;;;;;7392880;19;20480;-71
2023/05/22 07:30:17;;;;;;;19.05;9.10;;;;;;;;;;7376098;19;20579;-70
2023/05/22 07:32:42;;;;;;;12.35;8.57;;;;;;;;;;7373970;19;20531;-70
2023/05/22 07:35:09;;;;;;;12.93;8.45;;;;;;;;;;7374759;19;20010;-71
2023/05/22 07:37:36;;;;;;;12.82;9.32;;;;;;;;;;7371237;19;20011;-70
2023/05/22 07:40:04;;;;;;;14.10;9.13;;;;;;;;;;7397235;19;20405;-71
2023/05/22 07:42:29;;;;;;;16.10;9.48;;;;;;;;;;7374417;19;20006;-70
2023/05/22 07:44:54;;;;;;;15.38;9.43;;;;;;;;;;7375717;19;20106;-71
2023/05/22 07:47:20;;;;;;;13.32;8.93;;;;;;;;;;7371913;19;20007;-70
2023/05/22 07:49:45;;;;;;;15.27;9.20;;;;;;;;;;7374461;19;20006;-70
2023/05/22 07:52:10;;;;;;;14.35;9.60;;;;;;;;;;7374967;19;20017;-70
2023/05/22 07:54:36;;;;;;;15.07;9.48;;;;;;;;;;7392729;19;20035;-70
2023/05/22 07:57:02;;;;;;;14.70;9.30;;;;;;;;;;7371700;19;20010;-71
2023/05/22 07:59:28;;;;;;;13.32;9.63;;;;;;;;;;7372698;19;20014;-71
2023/05/22 08:01:53;;;;;;;15.20;9.07;;;;;;;;;;7374129;19;20010;-70
2023/05/22 08:04:18;;;;;;;13.55;9.13;;;;;;;;;;7373894;19;20010;-70
2023/05/22 08:06:44;;;;;;;15.18;9.38;;;;;;;;;;7393864;19;20349;-69
2023/05/22 08:09:09;;;;;;;15.10;10.07;;;;;;;;;;7372109;19;20490;-69
2023/05/22 08:11:36;;;;;;;12.55;8.98;;;;;;;;;;7374918;19;20018;-69
2023/05/22 08:14:01;;;;;;;14.82;9.20;;;;;;;;;;7384486;19;20006;-69
2023/05/22 08:16:27;;;;;;;17.73;9.75;;;;;;;;;;7396653;19;20018;-69
2023/05/22 08:18:52;;;;;;;15.52;9.63;;;;;;;;;;7411036;19;20002;-71
2023/05/22 08:21:18;;;;;;;16.23;9.52;;;;;;;;;;7379507;19;20043;-69
2023/05/22 08:23:43;;;;;;;13.95;9.55;;;;;;;;;;7374135;19;20010;-69
2023/05/22 08:26:08;;;;;;;13.20;9.48;;;;;;;;;;7373146;19;20085;-69
2023/05/22 08:28:34;;;;;;;14.98;9.25;;;;;;;;;;7375033;19;20031;-69
2023/05/22 08:30:59;;;;;;;13.93;9.48;;;;;;;;;;7395809;19;20013;-70
2023/05/22 08:33:25;;;;;;;13.13;8.57;;;;;;;;;;7382822;19;20030;-70
2023/05/22 08:35:51;;;;;;;13.50;9.85;;;;;;;;;;7396405;19;20006;-69
2023/05/22 08:38:16;;;;;;;14.45;9.52;;;;;;;;;;7371476;19;20085;-69
2023/05/22 08:40:46;;;;;;;13.73;9.60;;;;;;;;;;7373019;19;20615;-69
2023/05/22 08:43:11;;;;;;;13.90;9.57;;;;;;;;;;7372714;19;20473;-68
2023/05/22 08:45:41;;;;;;;14.68;9.07;;;;;;;;;;7394569;19;20024;-69
2023/05/22 08:48:11;;;;;;;13.15;9.63;;;;;;;;;;7369935;19;20011;-69
2023/05/22 08:50:40;;;;;;;14.35;9.65;;;;;;;;;;7372878;19;20372;-69
2023/05/22 08:53:07;;;;;;;14.55;9.80;;;;;;;;;;7371972;19;20109;-69
2023/05/22 08:55:33;;;;;;;12.90;9.55;;;;;;;;;;7372390;19;20018;-69
2023/05/22 08:57:59;;;;;;;15.27;9.80;;;;;;;;;;7390966;19;20013;-69
2023/05/22 09:00:24;;;;;;;11.50;9.23;;;;;;;;;;7371919;19;20010;-69
2023/05/22 09:02:51;;;;;;;13.52;9.82;;;;;;;;;;7371148;19;20016;-69
2023/05/22 09:05:16;;;;;;;12.27;9.38;;;;;;;;;;7370703;19;20113;-69
2023/05/22 09:07:42;;;;;;;14.50;10.18;;;;;;;;;;7369124;19;20027;-69
2023/05/22 09:10:08;;;;;;;14.95;10.15;;;;;;;;;;7392897;19;19998;-69
2023/05/22 09:12:33;;;;;;;13.68;9.38;;;;;;;;;;7371223;19;20454;-69
2023/05/22 09:15:11;;;;;;;14.40;9.18;;;;;;;;;;7371013;19;20021;-69
2023/05/22 09:17:39;;;;;;;15.68;10.25;;;;;;;;;;7369436;19;20034;-69
2023/05/22 09:20:06;;;;;;;13.88;10.13;;;;;;;;;;7371740;19;20443;-69
2023/05/22 09:22:36;;;;;;;16.33;10.07;;;;;;;;;;7371764;19;20078;-69
2023/05/22 09:25:02;;;;;;;14.63;9.90;;;;;;;;;;7391971;19;20018;-69
2023/05/22 09:27:27;;;;;;;18.75;10.77;;;;;;;;;;7368426;19;20007;-70
2023/05/22 09:29:58;;;;;;;21.55;9.90;;;;;;;;;;7371742;19;20540;-69
2023/05/22 09:32:24;;;;;;;22.15;11.48;;;;;;;;;;7371434;19;20042;-69
2023/05/22 09:34:50;;;;;;;16.92;11.32;;;;;;;;;;7372341;19;20093;-69
2023/05/22 09:37:16;;;;;;;13.70;10.45;;;;;;;;;;7369983;19;20006;-69
2023/05/22 09:39:44;;;;;;;15.52;10.52;;;;;;;;;;7392573;19;20039;-69
2023/05/22 09:42:13;;;;;;;13.48;10.35;;;;;;;;;;7372474;19;20165;-69
2023/05/22 09:44:41;;;;;;;13.60;10.85;;;;;;;;;;7376730;19;20469;-69
2023/05/22 09:47:07;;;;;;;14.90;11.55;;;;;;;;;;7369480;19;20082;-69
2023/05/22 09:49:39;;;;;;;15.90;12.05;;;;;;;;;;7368826;19;20014;-69
2023/05/22 09:52:07;;;;;;;13.80;11.10;;;;;;;;;;7392969;19;20011;-71
2023/05/22 09:54:33;;;;;;;13.15;10.57;;;;;;;;;;7369626;19;20020;-71
2023/05/22 09:57:00;;;;;;;14.40;10.23;;;;;;;;;;7369439;19;20010;-70
2023/05/22 09:59:28;;;;;;;16.98;12.35;;;;;;;;;;7368115;19;20019;-70
2023/05/22 10:01:55;;;;;;;16.92;11.60;;;;;;;;;;7369720;19;20006;-69
2023/05/22 10:04:21;;;;;;;14.43;11.63;;;;;;;;;;7368923;19;20015;-70
2023/05/22 10:06:50;;;;;;;14.82;11.80;;;;;;;;;;7389410;19;20108;-71
2023/05/22 10:09:17;;;;;;;18.40;11.20;;;;;;;;;;7364091;19;20034;-71
2023/05/22 10:11:44;;;;;;;16.42;12.35;;;;;;;;;;7366794;19;20011;-71
2023/05/22 10:14:09;;;;;;;17.30;12.45;;;;;;;;;;7365659;19;20010;-71
2023/05/22 10:16:38;;;;;;;14.35;11.60;;;;;;;;;;7366206;19;20374;-71
2023/05/22 10:19:04;;;;;;;16.05;12.02;;;;;;;;;;7387503;19;20006;-71
2023/05/22 10:21:31;;;;;;;16.20;11.65;;;;;;;;;;7367651;19;20011;-71
2023/05/22 10:24:00;;;;;;;12.65;10.68;;;;;;;;;;7372420;19;20010;-71
2023/05/22 10:26:29;;;;;;;13.05;10.65;;;;;;;;;;7377328;19;20076;-71
2023/05/22 10:29:11;;;;;;;13.65;10.18;;;;;;;;;;7370371;19;20006;-71
2023/05/22 10:32:02;;;;;;;13.57;10.70;;;;;;;;;;7367084;19;20492;-71
2023/05/22 10:34:37;;;;;;;13.75;11.25;;;;;;;;;;7366783;19;20011;-67
2023/05/22 10:37:40;;;;;;;15.55;11.38;;;;;;;;;;7389383;19;20023;-68
2023/05/22 10:40:18;;;;;;;17.45;10.98;;;;;;;;;;7266382;19;2006032;-68
2023/05/22 10:42:43;;;;;;;13.73;10.00;;;;;;;;;;7392218;19;20122;-68
2023/05/22 10:45:09;;;;;;;14.10;10.93;;;;;;;;;;7367241;19;20019;-68
2023/05/22 10:47:35;;;;;;;13.95;9.85;;;;;;;;;;7366970;19;20011;-68
2023/05/22 10:50:08;;;;;;;16.50;10.18;;;;;;;;;;7366822;19;20090;-67
2023/05/22 10:52:38;;;;;;;13.32;9.85;;;;;;;;;;7367807;19;20006;-67
2023/05/22 10:55:08;;;;;;;18.10;10.38;;;;;;;;;;7389589;19;20015;-69
2023/05/22 10:57:36;;;;;;;14.25;10.48;;;;;;;;;;7364394;19;20006;-68
2023/05/22 11:00:15;;;;;;;13.13;9.90;;;;;;;;;;7367019;19;20078;-68
2023/05/22 11:02:44;;;;;;;15.13;9.43;;;;;;;;;;7366849;19;20042;-67
2023/05/22 11:05:15;;;;;;;15.13;10.25;;;;;;;;;;7366236;19;20066;-67
2023/05/22 11:07:41;;;;;;;13.68;9.52;;;;;;;;;;7364864;19;20002;-68
2023/05/22 11:10:06;;;;;;;13.10;10.55;;;;;;;;;;7388398;19;20003;-68
2023/05/22 11:12:32;;;;;;;12.18;9.70;;;;;;;;;;7366587;19;20053;-68
2023/05/22 11:14:58;;;;;;;16.03;10.23;;;;;;;;;;7366672;19;20062;-68
2023/05/22 11:17:26;;;;;;;15.23;9.88;;;;;;;;;;7364270;19;20270;-68
2023/05/22 11:20:19;;;;;;;13.85;9.65;;;;;;;;;;7366960;19;20028;-68
2023/05/22 11:23:04;;;;;;;13.73;9.93;;;;;;;;;;7367603;19;20003;-68
2023/05/22 11:25:32;;;;;;;12.27;9.40;;;;;;;;;;7367669;19;20007;-68
2023/05/22 11:27:57;;;;;;;13.75;10.40;;;;;;;;;;7386018;19;19995;-68
2023/05/22 11:30:27;;;;;;;15.27;10.00;;;;;;;;;;7366509;19;20009;-68
2023/05/22 11:32:53;;;;;;;15.07;10.20;;;;;;;;;;7365699;19;20666;-68
2023/05/22 11:35:21;;;;;;;13.68;10.30;;;;;;;;;;7367554;19;20018;-68
2023/05/22 11:37:49;;;;;;;14.32;11.10;;;;;;;;;;7364761;19;19999;-68
2023/05/22 11:40:20;;;;;;;18.17;10.25;;;;;;;;;;7365845;19;20003;-68
2023/05/22 11:42:46;;;;;;;12.95;9.98;;;;;;;;;;7390068;19;20017;-67
2023/05/22 11:45:12;;;;;;;12.50;9.63;;;;;;;;;;7368908;19;20079;-68
2023/05/22 11:47:38;;;;;;;16.17;10.60;;;;;;;;;;7370335;19;20003;-67
2023/05/22 11:50:05;;;;;;;14.32;10.02;;;;;;;;;;7375290;19;20124;-67
2023/05/22 11:52:32;;;;;;;15.57;11.00;;;;;;;;;;7371016;19;19999;-68
2023/05/22 11:54:58;;;;;;;14.90;10.57;;;;;;;;;;7388579;19;20460;-68
2023/05/22 11:57:23;;;;;;;15.35;10.23;;;;;;;;;;7370516;19;20014;-68
2023/05/22 11:59:48;;;;;;;11.73;9.13;;;;;;;;;;7372966;19;20017;-68
2023/05/22 12:02:18;;;;;;;13.50;8.93;;;;;;;;;;7373704;19;20006;-68
2023/05/22 12:04:43;;;;;;;15.23;11.23;;;;;;;;;;7374477;19;20078;-67
2023/05/22 12:07:09;;;;;;;15.05;9.75;;;;;;;;;;7393615;19;20684;-67
2023/05/22 12:09:37;;;;;;;11.18;9.55;;;;;;;;;;7372948;19;20457;-68
2023/05/22 12:12:02;;;;;;;12.63;9.90;;;;;;;;;;7373245;19;20003;-68
2023/05/22 12:14:30;;;;;;;12.45;9.32;;;;;;;;;;7367017;19;20010;-68
2023/05/22 12:17:03;;;;;;;13.32;8.55;;;;;;;;;;7374244;19;20016;-68
2023/05/22 12:19:29;;;;;;;14.85;9.60;;;;;;;;;;7373284;19;20007;-68
2023/05/22 12:21:54;;;;;;;14.90;9.65;;;;;;;;;;7395529;19;20017;-68
2023/05/22 12:24:22;;;;;;;12.85;9.38;;;;;;;;;;7373973;19;20007;-68
2023/05/22 12:26:53;;;;;;;14.38;9.20;;;;;;;;;;7373151;19;20025;-68
2023/05/22 12:29:21;;;;;;;14.60;9.50;;;;;;;;;;7375514;19;20765;-68
2023/05/22 12:31:46;;;;;;;13.75;10.18;;;;;;;;;;7377667;19;20005;-68
2023/05/22 12:34:12;;;;;;;14.77;8.60;;;;;;;;;;7374314;19;19999;-68
2023/05/22 12:36:39;;;;;;;13.40;9.40;;;;;;;;;;7393530;19;20010;-68
2023/05/22 12:39:09;;;;;;;11.90;9.20;;;;;;;;;;7371993;19;20006;-68
2023/05/22 12:41:35;;;;;;;13.80;9.63;;;;;;;;;;7372551;19;20006;-68
2023/05/22 12:44:02;;;;;;;14.48;9.20;;;;;;;;;;7373163;19;20122;-69
2023/05/22 12:46:30;;;;;;;13.77;8.85;;;;;;;;;;7371022;19;20006;-68
2023/05/22 12:48:55;;;;;;;14.15;9.48;;;;;;;;;;7391998;19;20015;-68
2023/05/22 12:51:21;;;;;;;13.07;9.32;;;;;;;;;;7371707;19;20464;-68
2023/05/22 12:53:46;;;;;;;15.38;9.40;;;;;;;;;;7371139;19;20009;-68
2023/05/22 12:56:11;;;;;;;12.45;9.48;;;;;;;;;;7371236;19;20010;-68
2023/05/22 12:58:36;;;;;;;11.32;8.80;;;;;;;;;;7370730;19;20011;-68
2023/05/22 13:01:02;;;;;;;11.27;9.13;;;;;;;;;;7393051;19;20036;-69
2023/05/22 13:03:27;;;;;;;13.48;9.32;;;;;;;;;;7371041;19;20040;-68
2023/05/22 13:05:52;;;;;;;12.57;9.30;;;;;;;;;;7371290;19;20084;-68
2023/05/22 13:08:19;;;;;;;14.35;9.30;;;;;;;;;;7369459;19;20022;-68
2023/05/22 13:10:44;;;;;;;14.00;9.27;;;;;;;;;;7373318;19;20617;-68
2023/05/22 13:13:09;;;;;;;12.48;8.35;;;;;;;;;;7388093;19;20003;-68
2023/05/22 13:15:35;;;;;;;12.75;8.32;;;;;;;;;;7388963;19;20009;-68
2023/05/22 13:18:00;;;;;;;11.75;8.60;;;;;;;;;;7374839;19;20006;-68
2023/05/22 13:20:25;;;;;;;12.50;8.90;;;;;;;;;;7371702;19;20073;-68
2023/05/22 13:22:51;;;;;;;10.88;7.85;;;;;;;;;;7371226;19;20010;-68
2023/05/22 13:25:17;;;;;;;15.67;9.40;;;;;;;;;;7371300;19;20007;-68
2023/05/22 13:27:43;;;;;;;13.35;8.35;;;;;;;;;;7390387;19;20263;-68
2023/05/22 13:30:09;;;;;;;13.60;8.05;;;;;;;;;;7371344;19;20013;-68
2023/05/22 13:32:35;;;;;;;12.82;8.55;;;;;;;;;;7370509;19;20007;-68
2023/05/22 13:35:00;;;;;;;16.15;8.50;;;;;;;;;;7371275;19;20023;-68
2023/05/22 13:37:25;;;;;;;13.77;9.18;;;;;;;;;;7354067;19;20003;-69
2023/05/22 13:39:51;;;;;;;13.23;7.40;;;;;;;;;;7392096;19;20041;-68
2023/05/22 13:42:16;;;;;;;12.63;7.80;;;;;;;;;;7369384;19;20011;-68
2023/05/22 13:44:41;;;;;;;13.07;7.28;;;;;;;;;;7369631;19;20002;-68
2023/05/22 13:47:07;;;;;;;10.57;7.47;;;;;;;;;;7369854;19;20017;-68
2023/05/22 13:49:32;;;;;;;10.18;7.15;;;;;;;;;;7369426;19;20003;-68
2023/05/22 13:51:58;;;;;;;10.43;8.30;;;;;;;;;;7391594;19;20023;-68
2023/05/22 13:54:23;;;;;;;12.73;7.40;;;;;;;;;;7368863;19;20347;-68
2023/05/22 13:56:48;;;;;;;10.45;7.70;;;;;;;;;;7370663;19;20017;-68
2023/05/22 13:59:14;;;;;;;11.02;7.68;;;;;;;;;;7368878;19;20362;-68
2023/05/22 14:01:39;;;;;;;10.25;7.13;;;;;;;;;;7368945;19;20021;-68
2023/05/22 14:04:04;;;;;;;10.07;7.07;;;;;;;;;;7391534;19;19999;-68
2023/05/22 14:06:30;;;;;;;10.38;6.80;;;;;;;;;;7368992;19;20338;-68
2023/05/22 14:08:55;;;;;;;9.43;6.43;;;;;;;;;;7367385;19;20006;-68
2023/05/22 14:11:21;;;;;;;10.80;7.82;;;;;;;;;;7368764;19;20438;-67
2023/05/22 14:13:47;;;;;;;13.48;8.25;;;;;;;;;;7369326;19;20750;-68
2023/05/22 14:16:12;;;;;;;15.80;8.15;;;;;;;;;;7367772;19;20010;-68
2023/05/22 14:18:37;;;;;;;12.48;8.10;;;;;;;;;;7387688;19;20016;-68
2023/05/22 14:21:03;;;;;;;10.63;8.20;;;;;;;;;;7368554;19;20035;-68